Time;durP1;ratioP1;P1;durP2;ratioP2;P2;SDS_P1;SDS_P2;PMS_P1;PMS_P2;Temp;Humidity;BMP_temperature;BMP_pressure;BME280_temperature;BME280_humidity;BME280_pressure;Samples;Min_cycle;Max_cycle;Signal;HPM_P1;HPM_P2
2022/07/28 00:07:50;;;;;;;4.60;2.90;;;;;;;15.54;81.62;100558.38;657538;1277;139091;-82
2022/07/28 00:22:53;;;;;;;7.40;3.60;;;;;;;15.52;81.66;100556.42;657363;1277;139032;-82
2022/07/28 00:37:58;;;;;;;5.70;2.70;;;;;;;15.37;82.34;100554.52;657169;1277;139258;-83
2022/07/28 00:53:04;;;;;;;6.60;3.50;;;;;;;15.40;82.36;100557.48;657644;1277;140259;-82
2022/07/28 01:08:17;;;;;;;7.50;3.50;;;;;;;15.58;81.86;100552.17;657532;1278;139586;-82
2022/07/28 01:23:31;;;;;;;8.30;3.80;;;;;;;15.58;81.85;100555.09;657308;1277;139068;-82
2022/07/28 01:38:38;;;;;;;6.70;3.40;;;;;;;15.76;81.83;100551.80;657592;1277;139669;-83
2022/07/28 01:53:48;;;;;;;5.70;2.70;;;;;;;15.87;82.61;100557.73;657679;1277;140470;-83
2022/07/28 02:08:52;;;;;;;7.70;3.70;;;;;;;15.64;84.11;100555.09;657367;1277;139119;-83
2022/07/28 02:23:58;;;;;;;8.50;3.60;;;;;;;15.40;86.35;100544.02;657519;1278;139467;-83
2022/07/28 02:39:08;;;;;;;8.50;3.20;;;;;;;15.38;87.32;100545.60;659303;1277;139049;-83
2022/07/28 02:54:16;;;;;;;7.20;3.00;;;;;;;15.37;87.70;100545.80;655533;1277;139532;-82
2022/07/28 03:09:20;;;;;;;5.30;3.00;;;;;;;15.40;87.66;100547.06;656137;1276;139420;-82
2022/07/28 03:24:31;;;;;;;13.50;4.80;;;;;;;15.49;88.07;100550.39;655634;1277;139022;-83
2022/07/28 03:39:44;;;;;;;8.60;2.90;;;;;;;15.77;87.40;100568.47;663826;1277;139867;-84
2022/07/28 03:54:48;;;;;;;6.60;3.40;;;;;;;15.86;87.68;100582.39;656025;1277;140269;-83
2022/07/28 04:09:53;;;;;;;8.50;3.50;;;;;;;16.05;87.10;100591.84;656000;1277;139082;-83
2022/07/28 04:25:00;;;;;;;9.90;3.50;;;;;;;16.18;87.06;100598.91;655939;1277;139157;-83
2022/07/28 04:40:08;;;;;;;6.10;3.00;;;;;;;16.30;87.88;100594.34;655804;1277;139281;-83
2022/07/28 04:55:11;;;;;;;11.10;4.10;;;;;;;16.42;89.48;100584.58;655383;1277;139249;-83
2022/07/28 05:10:15;;;;;;;10.50;3.60;;;;;;;16.52;91.17;100597.45;656030;1277;139977;-83
2022/07/28 05:25:22;;;;;;;8.90;3.20;;;;;;;16.74;92.21;100608.61;655594;1277;139115;-84
2022/07/28 05:40:30;;;;;;;11.40;4.30;;;;;;;16.92;92.91;100626.09;655420;1277;139145;-84
2022/07/28 05:55:33;;;;;;;9.10;3.20;;;;;;;17.07;94.33;100640.21;654591;1279;139238;-84
2022/07/28 06:11:00;;;;;;;7.40;2.50;;;;;;;17.46;94.68;100651.95;655432;1277;139785;-85
2022/07/28 06:26:10;;;;;;;12.00;4.90;;;;;;;17.85;93.38;100665.86;655400;1278;139261;-86
2022/07/28 06:41:17;;;;;;;8.80;2.50;;;;;;;18.14;92.14;100673.61;656188;1277;139476;-85
2022/07/28 06:56:21;;;;;;;6.50;2.10;;;;;;;18.55;90.39;100679.05;660872;1277;139000;-85
2022/07/28 07:11:26;;;;;;;8.10;2.60;;;;;;;19.22;88.31;100680.73;659753;1277;140447;-86
2022/07/28 07:26:30;;;;;;;7.80;3.40;;;;;;;19.77;85.49;100686.10;655950;1277;141899;-84
2022/07/28 07:41:34;;;;;;;10.10;2.90;;;;;;;19.97;82.60;100696.39;656433;1277;139719;-85
2022/07/28 07:56:37;;;;;;;4.90;3.00;;;;;;;20.39;81.32;100704.02;657542;1277;139079;-84
2022/07/28 08:11:41;;;;;;;3.80;1.90;;;;;;;20.68;79.98;100716.75;657668;1276;139289;-85
2022/07/28 08:26:45;;;;;;;5.10;2.10;;;;;;;22.25;76.84;100709.30;658741;1277;140145;-86
2022/07/28 08:42:05;;;;;;;4.60;1.60;;;;;;;22.99;70.49;100711.48;659523;1277;140207;-84
2022/07/28 08:57:19;;;;;;;4.90;2.10;;;;;;;23.19;68.21;100717.59;657747;1277;138302;-84
2022/07/28 09:12:26;;;;;;;5.90;1.80;;;;;;;23.38;66.95;100720.70;660305;1276;138995;-83
2022/07/28 09:27:44;;;;;;;7.60;2.60;;;;;;;23.81;64.99;100732.33;657986;1277;139210;-84
2022/07/28 09:42:54;;;;;;;6.00;1.70;;;;;;;23.07;64.17;100738.12;656090;1277;139901;-84
2022/07/28 09:58:08;;;;;;;4.90;1.50;;;;;;;23.71;63.42;100735.14;656545;1277;138280;-85
2022/07/28 10:13:17;;;;;;;3.80;1.50;;;;;;;23.64;63.64;100740.61;657818;1277;139190;-84
2022/07/28 10:28:22;;;;;;;4.20;1.40;;;;;;;23.04;62.80;100746.85;658504;1276;653214;-84
2022/07/28 10:43:26;;;;;;;3.80;1.60;;;;;;;23.30;63.68;100745.36;658831;1277;139021;-84
2022/07/28 10:58:45;;;;;;;7.20;1.70;;;;;;;24.01;62.11;100747.56;658802;1277;140232;-85
2022/07/28 11:13:49;;;;;;;2.10;1.30;;;;;;;23.39;63.30;100751.83;657424;1277;138809;-83
2022/07/28 11:29:13;;;;;;;4.70;1.50;;;;;;;23.96;63.84;100750.08;657544;1277;140802;-84
2022/07/28 11:44:30;;;;;;;4.20;1.90;;;;;;;25.43;59.47;100746.73;657329;1276;138406;-81
2022/07/28 11:59:42;;;;;;;3.50;1.30;;;;;;;25.91;58.83;100749.38;657834;1277;140545;-84
2022/07/28 12:14:49;;;;;;;8.90;1.60;;;;;;;26.85;56.90;100743.95;658859;1277;138902;-84
2022/07/28 12:30:03;;;;;;;4.40;1.50;;;;;;;26.90;55.83;100737.81;658684;1275;138217;-85
2022/07/28 12:45:09;;;;;;;4.50;1.80;;;;;;;26.74;55.10;100734.96;657105;1277;138191;-85
2022/07/28 13:00:17;;;;;;;5.50;2.30;;;;;;;27.58;54.46;100725.92;658533;1277;138578;-85
2022/07/28 13:15:22;;;;;;;4.10;1.10;;;;;;;27.76;52.53;100726.39;660054;1277;138698;-82
2022/07/28 13:30:25;;;;;;;4.90;1.20;;;;;;;28.56;51.31;100729.05;658431;1277;138643;-84
2022/07/28 13:45:29;;;;;;;1.90;0.80;;;;;;;28.37;48.78;100733.20;658241;1277;138309;-83
2022/07/28 14:00:34;;;;;;;3.50;1.20;;;;;;;28.82;48.83;100732.59;658819;1277;138856;-86
2022/07/28 14:15:39;;;;;;;2.80;0.90;;;;;;;28.91;47.06;100728.70;667112;1275;139321;-84
2022/07/28 14:30:42;;;;;;;4.60;1.00;;;;;;;29.06;46.86;100724.23;657956;1277;139560;-82
2022/07/28 14:45:46;;;;;;;4.10;1.30;;;;;;;29.04;48.37;100721.80;659962;1277;138509;-83
2022/07/28 15:01:09;;;;;;;3.60;1.20;;;;;;;28.57;49.66;100718.89;659985;1277;139324;-84
2022/07/28 15:16:13;;;;;;;4.20;0.90;;;;;;;27.82;49.96;100722.16;659097;1277;139803;-77
2022/07/28 15:31:17;;;;;;;1.80;1.10;;;;;;;27.34;52.85;100724.58;665203;1278;138969;-84
2022/07/28 15:46:22;;;;;;;5.30;2.70;;;;;;;26.50;56.36;100726.55;659840;1277;138251;-81
2022/07/28 16:01:28;;;;;;;8.30;3.80;;;;;;;26.61;56.94;100736.94;658117;1276;138362;-84
2022/07/28 16:16:32;;;;;;;5.30;2.60;;;;;;;26.01;59.08;100738.33;658962;1277;140748;-83
2022/07/28 16:31:37;;;;;;;4.90;1.90;;;;;;;26.50;59.33;100749.02;660419;1277;139385;-84
2022/07/28 16:46:47;;;;;;;7.00;2.70;;;;;;;26.08;60.62;100759.69;657009;1277;139019;-83
2022/07/28 17:01:50;;;;;;;10.30;3.30;;;;;;;25.70;61.78;100771.41;657507;1277;138564;-83
2022/07/28 17:16:54;;;;;;;4.80;2.70;;;;;;;25.39;62.73;100777.75;659275;1276;138689;-84
2022/07/28 17:31:57;;;;;;;6.70;1.90;;;;;;;24.78;63.90;100781.20;660569;1277;138175;-83
2022/07/28 17:47:02;;;;;;;5.90;2.50;;;;;;;24.36;64.67;100791.98;659587;1277;139532;-85
2022/07/28 18:02:06;;;;;;;12.40;4.80;;;;;;;23.65;66.47;100803.52;658821;1276;140253;-84
2022/07/28 18:17:10;;;;;;;14.10;5.70;;;;;;;23.01;68.00;100817.21;664027;1277;138084;-83
2022/07/28 18:32:14;;;;;;;11.10;4.80;;;;;;;22.59;69.53;100835.34;663096;1277;138404;-83
2022/07/28 18:47:17;;;;;;;29.10;13.90;;;;;;;22.08;70.97;100847.62;660418;1277;141171;-84
2022/07/28 19:02:21;;;;;;;21.80;9.30;;;;;;;21.52;73.21;100857.18;658293;1277;22725;-83
2022/07/28 19:17:28;;;;;;;11.30;5.40;;;;;;;21.05;75.52;100868.31;660449;1277;24496;-84
2022/07/28 19:32:32;;;;;;;10.60;4.80;;;;;;;20.72;77.57;100874.67;658989;1277;139253;-82
2022/07/28 19:47:37;;;;;;;8.70;4.10;;;;;;;20.41;79.07;100878.69;658482;1277;138725;-83
2022/07/28 20:02:42;;;;;;;11.30;4.40;;;;;;;20.09;81.16;100881.70;667638;1277;138388;-83
2022/07/28 20:17:47;;;;;;;4.00;1.90;;;;;;;19.77;83.12;100888.76;659794;1277;140587;-83
2022/07/28 20:32:51;;;;;;;4.50;1.90;;;;;;;19.38;85.15;100899.36;657748;1277;139192;-83
2022/07/28 20:47:55;;;;;;;7.10;3.30;;;;;;;19.05;87.43;100906.67;656146;1277;139892;-83
2022/07/28 21:02:59;;;;;;;9.20;3.50;;;;;;;18.82;88.41;100915.33;657014;1277;139041;-83
2022/07/28 21:18:02;;;;;;;8.20;3.40;;;;;;;18.63;88.69;100921.05;657609;1277;139537;-83
2022/07/28 21:33:06;;;;;;;6.80;2.60;;;;;;;18.37;89.98;100937.05;657626;1277;139030;-84
2022/07/28 21:48:09;;;;;;;6.20;2.90;;;;;;;18.17;90.78;100953.62;657237;1277;139348;-85
2022/07/28 22:03:12;;;;;;;4.30;2.30;;;;;;;17.96;91.13;100965.63;656694;1277;139707;-82
2022/07/28 22:18:16;;;;;;;8.10;2.70;;;;;;;17.72;91.36;100983.95;655731;1277;139912;-83
2022/07/28 22:33:19;;;;;;;3.80;2.60;;;;;;;17.41;93.15;100983.91;656501;1277;284074;-83
2022/07/28 22:48:22;;;;;;;6.10;2.20;;;;;;;17.18;94.72;100996.20;657520;1277;139839;-82
2022/07/28 23:03:28;;;;;;;5.10;2.70;;;;;;;16.89;95.62;101001.30;657634;1277;139248;-83
2022/07/28 23:18:31;;;;;;;11.20;5.60;;;;;;;16.69;95.84;101011.83;657257;1277;139169;-82
2022/07/28 23:33:37;;;;;;;14.00;6.30;;;;;;;16.49;96.14;101019.08;657684;1277;139330;-82
2022/07/28 23:48:56;;;;;;;11.30;5.50;;;;;;;16.10;96.44;101022.81;658110;1277;139112;-83
